Portada
METAR-TAF:

METAR-TAF

Aeropuertos :

Aeropuerto Internacional de Bagdad

Bagdad, Iraq

latitud: 33-15-45N, longitud: 44-14-04E, altitud: 35 m

Observación

El informe se hizo hace 37 minutos, a las 18:00 UTC
Viento 6 kt del oeste
Temperatura 39°C
Humedad 14%
Presión 996 hPa
Visibilidad 10 km o más
sin nubes por debajo de 1500 m y sin presencia de cumulonimbus.

METAR: ORBI 131800Z 27006KT CAVOK 39/07 Q0996 NOSIG

Hora: 21:37 (18:37 UTC)

Pronóstico

El informe se hizo hace 2 horas y 37 minutos, a las 16:00 UTC
Pronóstico válido del 13 a las 18 UTC al 14 a las 18 UTC
Viento 13 kt del norte-noroeste
Visibilidad 10 km o más
sin nubes por debajo de 1500 m y sin presencia de cumulonimbus.

TAF: ORBI 131600Z 1318/1418 34013KT CAVOK

Observaciones y pronósticos meteorológicos de más de 4000 aeropuertos (mensajes METAR y TAF).

Los puntos amarillos y rojos representan las estaciones disponibles.

Ponga el ratón en el punto deseado para ver el nombre de la estación.

Haga clic para ver las observaciones y los pronósticos meteorológicos.

Para cambiar el mapa : haga clic en los botones verdes con una cruz de color negro para hacer un zoom, en el botón verde con un guión para alejar o en las flechas verdes para mapas adyacentes.


METAR-TAF: